createdAt,value
2018-06-04T00:00:16.281Z,10.10
2018-06-04T00:02:44.573Z,9.47
2018-06-04T00:05:12.787Z,9.57
2018-06-04T00:07:40.969Z,9.17
2018-06-04T00:10:09.172Z,9.57
2018-06-04T00:12:37.141Z,9.77
2018-06-04T00:15:05.295Z,10.63
2018-06-04T00:17:33.472Z,10.17
2018-06-04T00:20:01.650Z,11.00
2018-06-04T00:22:29.830Z,10.63
2018-06-04T00:24:58.309Z,10.57
2018-06-04T00:27:26.479Z,10.33
2018-06-04T00:29:54.658Z,10.20
2018-06-04T00:32:22.855Z,10.23
2018-06-04T00:34:51.052Z,10.67
2018-06-04T00:37:19.209Z,10.47
2018-06-04T00:39:47.390Z,11.10
2018-06-04T00:42:15.539Z,10.73
2018-06-04T00:44:43.729Z,10.67
2018-06-04T00:47:12.720Z,11.03
2018-06-04T00:49:40.896Z,10.20
2018-06-04T00:52:09.060Z,10.37
2018-06-04T00:54:37.233Z,12.10
2018-06-04T00:57:05.532Z,10.67
2018-06-04T00:59:33.725Z,10.73
2018-06-04T01:02:01.896Z,10.23
2018-06-04T01:04:30.077Z,10.20
2018-06-04T01:06:58.428Z,10.97
2018-06-04T01:09:26.600Z,10.80
2018-06-04T01:11:54.789Z,10.93
2018-06-04T01:14:23.596Z,10.40
2018-06-04T01:16:51.752Z,12.03
2018-06-04T01:19:19.912Z,10.30
2018-06-04T01:21:48.096Z,11.23
2018-06-04T01:24:16.277Z,11.30
2018-06-04T01:26:44.443Z,11.23
2018-06-04T01:29:12.621Z,11.47
2018-06-04T01:31:40.797Z,11.73
2018-06-04T01:34:08.993Z,11.77
2018-06-04T01:36:37.165Z,11.13
2018-06-04T01:39:07.536Z,11.77
2018-06-04T01:41:35.761Z,12.40
2018-06-04T01:44:03.946Z,10.97
2018-06-04T01:46:32.129Z,11.57
2018-06-04T01:49:01.049Z,12.00
2018-06-04T01:51:29.825Z,12.07
2018-06-04T01:53:58.008Z,11.37
2018-06-04T01:56:26.204Z,12.33
2018-06-04T01:58:54.379Z,11.27
2018-06-04T02:01:22.537Z,12.27
2018-06-04T02:03:50.725Z,12.23
2018-06-04T02:06:19.224Z,12.50
2018-06-04T02:08:47.395Z,12.37
2018-06-04T02:11:15.569Z,11.97
2018-06-04T02:13:43.764Z,11.47
2018-06-04T02:16:11.937Z,11.53
2018-06-04T02:18:40.103Z,11.87
2018-06-04T02:21:08.304Z,12.33
2018-06-04T02:23:36.495Z,11.37
2018-06-04T02:26:04.658Z,12.67
2018-06-04T02:28:32.818Z,12.80
2018-06-04T02:31:00.993Z,13.07
2018-06-04T02:33:29.163Z,12.97
2018-06-04T02:35:57.374Z,12.87
2018-06-04T02:38:25.540Z,13.27
2018-06-04T02:40:53.754Z,11.87
2018-06-04T02:43:21.948Z,12.17
2018-06-04T02:45:50.646Z,12.53
2018-06-04T02:48:19.156Z,12.33
2018-06-04T02:50:47.367Z,12.03
2018-06-04T02:53:15.562Z,12.20
2018-06-04T02:55:43.725Z,12.13
2018-06-04T02:58:11.899Z,12.53
2018-06-04T03:00:40.047Z,11.70
2018-06-04T03:03:08.218Z,12.03
2018-06-04T03:05:36.379Z,11.90
2018-06-04T03:08:04.575Z,12.00
2018-06-04T03:10:32.733Z,12.03
2018-06-04T03:13:01.072Z,11.73
2018-06-04T03:15:29.241Z,12.07
2018-06-04T03:17:57.473Z,11.83
2018-06-04T03:20:25.644Z,11.13
2018-06-04T03:22:53.799Z,12.77
2018-06-04T03:25:22.529Z,11.23
2018-06-04T03:27:50.674Z,11.27
2018-06-04T03:30:18.875Z,12.03
2018-06-04T03:32:47.066Z,11.77
2018-06-04T03:35:15.232Z,12.97
2018-06-04T03:37:43.401Z,13.20
2018-06-04T03:40:11.604Z,13.03
2018-06-04T03:42:39.813Z,14.37
2018-06-04T03:45:08.010Z,13.57
2018-06-04T03:47:37.179Z,13.63
2018-06-04T03:50:05.153Z,14.40
2018-06-04T03:52:33.072Z,14.47
2018-06-04T03:55:01.402Z,15.77
2018-06-04T03:57:29.645Z,14.43
2018-06-04T03:59:57.821Z,14.47
2018-06-04T04:02:26.013Z,14.43
2018-06-04T04:04:54.186Z,14.07
2018-06-04T04:07:22.395Z,14.77
2018-06-04T04:09:50.656Z,14.37
2018-06-04T04:12:18.842Z,14.67
2018-06-04T04:14:47.068Z,15.43
2018-06-04T04:17:15.237Z,14.57
2018-06-04T04:19:43.432Z,13.63
2018-06-04T04:22:11.613Z,13.87
2018-06-04T04:24:39.820Z,12.50
2018-06-04T04:27:07.760Z,12.80
2018-06-04T04:29:35.962Z,12.77
2018-06-04T04:32:04.144Z,12.40
2018-06-04T04:34:32.329Z,13.67
2018-06-04T04:37:00.690Z,12.70
2018-06-04T04:39:30.681Z,11.50
2018-06-04T04:41:58.869Z,13.07
2018-06-04T04:44:27.009Z,12.53
2018-06-04T04:46:55.186Z,12.50
2018-06-04T04:49:23.371Z,12.53
2018-06-04T04:51:51.531Z,11.67
2018-06-04T04:54:19.996Z,11.27
2018-06-04T04:56:48.148Z,11.63
2018-06-04T04:59:16.977Z,11.10
2018-06-04T05:01:45.247Z,10.83
2018-06-04T05:04:13.547Z,13.17
2018-06-04T05:06:41.909Z,11.67
2018-06-04T05:09:10.124Z,11.40
2018-06-04T05:11:38.298Z,11.50
2018-06-04T05:14:06.493Z,11.70
2018-06-04T05:16:34.686Z,9.73
2018-06-04T05:19:03.901Z,10.77
2018-06-04T05:21:32.609Z,10.13
2018-06-04T05:24:00.815Z,10.43
2018-06-04T05:26:29.096Z,11.07
2018-06-04T05:28:57.232Z,9.53
2018-06-04T05:31:25.517Z,10.33
2018-06-04T05:33:53.709Z,10.20
2018-06-04T05:36:21.862Z,12.30
2018-06-04T05:38:50.009Z,9.17
2018-06-04T05:41:18.942Z,8.80
2018-06-04T05:43:47.106Z,9.43
2018-06-04T05:46:15.284Z,10.40
2018-06-04T05:48:43.505Z,10.17
2018-06-04T05:51:11.432Z,9.40
2018-06-04T05:53:39.604Z,9.10
2018-06-04T05:56:07.783Z,8.87
2018-06-04T05:58:36.389Z,8.43
2018-06-04T06:01:04.606Z,10.43
2018-06-04T06:03:32.789Z,9.20
2018-06-04T06:06:00.970Z,9.73
2018-06-04T06:08:29.195Z,9.20
2018-06-04T06:10:57.381Z,9.00
2018-06-04T06:13:26.273Z,10.27
2018-06-04T06:15:54.202Z,9.53
2018-06-04T06:18:22.452Z,9.63
2018-06-04T06:20:50.652Z,10.07
2018-06-04T06:23:18.804Z,8.87
2018-06-04T06:25:46.977Z,9.33
2018-06-04T06:28:15.185Z,9.60
2018-06-04T06:30:43.401Z,10.30
2018-06-04T06:33:11.615Z,10.67
2018-06-04T06:35:39.844Z,9.50
2018-06-04T06:38:08.063Z,10.07
2018-06-04T06:40:35.991Z,9.80
2018-06-04T06:43:04.297Z,10.10
2018-06-04T06:45:32.500Z,9.63
2018-06-04T06:48:00.686Z,8.90
2018-06-04T06:50:28.936Z,9.83
2018-06-04T06:53:03.762Z,9.47
2018-06-04T06:55:32.018Z,8.83
2018-06-04T06:58:00.111Z,8.90
2018-06-04T07:00:28.438Z,8.67
2018-06-04T07:02:56.606Z,8.20
2018-06-04T07:05:24.817Z,9.77
2018-06-04T07:07:52.989Z,7.80
2018-06-04T07:10:21.140Z,7.97
2018-06-04T07:12:49.338Z,7.90
2018-06-04T07:15:17.492Z,8.67
2018-06-04T07:17:45.646Z,7.45
2018-06-04T07:20:14.340Z,7.83
2018-06-04T07:22:42.488Z,7.78
2018-06-04T07:25:10.694Z,7.25
2018-06-04T07:27:38.954Z,6.55
2018-06-04T07:30:07.300Z,7.17
2018-06-04T07:32:35.445Z,7.90
2018-06-04T07:35:03.606Z,6.42
2018-06-04T07:37:31.528Z,6.70
2018-06-04T07:39:59.703Z,6.15
2018-06-04T07:42:27.862Z,7.03
2018-06-04T07:44:56.027Z,6.22
2018-06-04T07:47:24.294Z,5.92
2018-06-04T07:49:52.242Z,6.70
2018-06-04T07:52:20.377Z,5.60
2018-06-04T07:54:48.529Z,6.30
2018-06-04T07:57:16.736Z,5.37
2018-06-04T07:59:44.858Z,5.58
2018-06-04T08:02:13.027Z,5.65
2018-06-04T08:04:41.231Z,5.72
2018-06-04T08:07:10.370Z,6.25
2018-06-04T08:09:38.537Z,5.75
2018-06-04T08:12:06.682Z,5.85
2018-06-04T08:14:34.840Z,6.25
2018-06-04T08:17:03.025Z,5.22
2018-06-04T08:19:31.202Z,5.65
2018-06-04T08:21:59.356Z,7.17
2018-06-04T08:24:27.527Z,5.22
2018-06-04T08:26:56.278Z,5.37
2018-06-04T08:29:24.832Z,5.28
2018-06-04T08:31:53.040Z,5.33
2018-06-04T08:34:21.204Z,5.92
2018-06-04T08:36:49.513Z,5.53
2018-06-04T08:39:17.680Z,5.12
2018-06-04T08:41:45.854Z,5.20
2018-06-04T08:44:14.596Z,4.70
2018-06-04T08:46:42.800Z,5.12
2018-06-04T08:49:11.271Z,4.47
2018-06-04T08:51:39.417Z,4.42
2018-06-04T08:54:07.610Z,5.00
2018-06-04T08:56:35.773Z,5.45
2018-06-04T08:59:03.999Z,5.00
2018-06-04T09:01:32.203Z,4.67
2018-06-04T09:04:00.352Z,5.15
2018-06-04T09:06:28.554Z,5.08
2018-06-04T09:08:56.724Z,4.20
2018-06-04T09:11:24.879Z,4.15
2018-06-04T09:13:53.069Z,4.75
2018-06-04T09:16:20.966Z,5.12
2018-06-04T09:18:49.132Z,5.03
2018-06-04T09:21:17.289Z,4.60
2018-06-04T09:23:45.232Z,4.35
2018-06-04T09:26:13.437Z,4.35
2018-06-04T09:28:41.590Z,4.22
2018-06-04T09:31:10.214Z,3.95
2018-06-04T09:33:38.448Z,4.10
2018-06-04T09:36:06.640Z,4.20
2018-06-04T09:38:34.927Z,4.30
2018-06-04T09:41:03.161Z,3.75
2018-06-04T09:43:31.435Z,3.92
2018-06-04T09:45:59.835Z,4.20
2018-06-04T09:48:28.069Z,4.55
2018-06-04T09:50:56.224Z,4.12
2018-06-04T09:53:24.148Z,3.58
2018-06-04T09:55:52.789Z,4.62
2018-06-04T09:58:22.336Z,4.22
2018-06-04T10:00:50.507Z,3.75
2018-06-04T10:03:18.649Z,4.50
2018-06-04T10:05:46.864Z,4.10
2018-06-04T10:08:15.024Z,3.90
2018-06-04T10:10:43.214Z,4.92
2018-06-04T10:13:11.373Z,3.85
2018-06-04T10:15:39.514Z,3.58
2018-06-04T10:18:07.669Z,4.60
2018-06-04T10:20:35.847Z,3.92
2018-06-04T10:23:06.225Z,4.53
2018-06-04T10:25:34.445Z,3.77
2018-06-04T10:28:02.585Z,3.50
2018-06-04T10:30:30.733Z,3.85
2018-06-04T10:32:58.919Z,3.60
2018-06-04T10:35:27.057Z,3.55
2018-06-04T10:37:55.209Z,4.12
2018-06-04T10:40:24.261Z,4.10
2018-06-04T10:42:52.374Z,3.83
2018-06-04T10:45:20.562Z,3.80
2018-06-04T10:47:48.729Z,4.45
2018-06-04T10:50:16.881Z,4.83
2018-06-04T10:52:45.102Z,4.05
2018-06-04T10:55:13.245Z,3.47
2018-06-04T10:57:41.160Z,3.40
2018-06-04T11:00:09.805Z,3.52
2018-06-04T11:02:37.717Z,3.75
2018-06-04T11:05:05.977Z,3.87
2018-06-04T11:07:34.132Z,4.20
2018-06-04T11:10:02.055Z,4.50
2018-06-04T11:12:30.200Z,4.00
2018-06-04T11:14:58.365Z,3.70
2018-06-04T11:17:26.554Z,3.75
2018-06-04T11:19:54.721Z,4.53
2018-06-04T11:22:22.877Z,4.20
2018-06-04T11:24:51.009Z,3.65
2018-06-04T11:27:19.188Z,3.42
2018-06-04T11:29:47.334Z,3.30
2018-06-04T11:32:15.487Z,2.95
2018-06-04T11:34:43.652Z,4.55
2018-06-04T11:37:11.801Z,2.80
2018-06-04T11:39:40.288Z,2.90
2018-06-04T11:42:08.455Z,3.33
2018-06-04T11:44:36.617Z,3.50
2018-06-04T11:47:04.942Z,3.08
2018-06-04T11:49:33.080Z,3.87
2018-06-04T11:52:01.233Z,3.05
2018-06-04T11:54:29.454Z,3.22
2018-06-04T11:56:57.731Z,3.30
2018-06-04T11:59:26.904Z,3.22
2018-06-04T12:01:55.069Z,3.75
2018-06-04T12:04:23.233Z,3.35
2018-06-04T12:06:51.412Z,3.08
2018-06-04T12:09:19.554Z,3.85
2018-06-04T12:11:47.776Z,3.15
2018-06-04T12:14:15.868Z,3.72
2018-06-04T12:16:44.063Z,3.10
2018-06-04T12:19:12.209Z,3.65
2018-06-04T12:21:40.127Z,3.62
2018-06-04T12:24:08.280Z,3.30
2018-06-04T12:26:36.445Z,3.62
2018-06-04T12:29:04.608Z,4.55
2018-06-04T12:31:32.912Z,3.40
2018-06-04T12:34:01.029Z,3.12
2018-06-04T12:36:29.206Z,3.40
2018-06-04T12:38:57.359Z,3.30
2018-06-04T12:41:25.617Z,3.42
2018-06-04T12:43:53.771Z,3.30
2018-06-04T12:46:21.953Z,3.92
2018-06-04T12:48:50.112Z,3.62
2018-06-04T12:51:18.312Z,3.72
2018-06-04T12:53:46.513Z,3.40
2018-06-04T12:56:14.758Z,3.30
2018-06-04T12:58:42.887Z,4.10
2018-06-04T13:01:11.049Z,4.45
2018-06-04T13:03:39.219Z,3.22
2018-06-04T13:06:07.362Z,3.40
2018-06-04T13:08:35.513Z,3.12
2018-06-04T13:11:03.672Z,3.72
2018-06-04T13:13:31.828Z,3.80
2018-06-04T13:16:00.051Z,3.65
2018-06-04T13:18:28.226Z,3.67
2018-06-04T13:20:56.374Z,3.50
2018-06-04T13:23:24.792Z,3.45
2018-06-04T13:25:52.953Z,3.75
2018-06-04T13:28:21.122Z,3.80
2018-06-04T13:30:49.415Z,3.70
2018-06-04T13:33:17.590Z,3.62
2018-06-04T13:35:45.761Z,4.05
2018-06-04T13:38:13.932Z,3.60
2018-06-04T13:40:42.082Z,3.72
2018-06-04T13:43:10.244Z,3.67
2018-06-04T13:45:42.813Z,4.33
2018-06-04T13:48:12.052Z,4.65
2018-06-04T13:50:40.780Z,3.80
2018-06-04T13:53:08.983Z,3.20
2018-06-04T13:55:36.892Z,3.90
2018-06-04T13:58:05.036Z,4.03
2018-06-04T14:00:33.239Z,3.62
2018-06-04T14:03:01.418Z,4.25
2018-06-04T14:05:29.571Z,6.28
2018-06-04T14:07:57.739Z,3.37
2018-06-04T14:10:25.893Z,3.92
2018-06-04T14:12:54.188Z,4.03
2018-06-04T14:15:22.371Z,3.75
2018-06-04T14:17:50.531Z,3.83
2018-06-04T14:20:18.715Z,4.00
2018-06-04T14:22:46.882Z,3.85
2018-06-04T14:25:15.072Z,7.37
2018-06-04T14:27:43.226Z,3.47
2018-06-04T14:30:11.422Z,4.00
2018-06-04T14:32:39.598Z,4.12
2018-06-04T14:35:07.764Z,4.05
2018-06-04T14:37:35.965Z,3.90
2018-06-04T14:40:04.147Z,3.58
2018-06-04T14:42:32.086Z,3.90
2018-06-04T14:45:00.256Z,3.92
2018-06-04T14:47:28.430Z,4.00
2018-06-04T14:49:56.639Z,4.40
2018-06-04T14:52:24.744Z,3.90
2018-06-04T14:54:52.912Z,3.95
2018-06-04T14:57:21.123Z,4.22
2018-06-04T14:59:49.290Z,4.50
2018-06-04T15:02:17.873Z,4.40
2018-06-04T15:04:46.073Z,3.58
2018-06-04T15:07:14.216Z,4.10
2018-06-04T15:09:43.266Z,3.87
2018-06-04T15:12:11.431Z,4.53
2018-06-04T15:14:39.862Z,5.25
2018-06-04T15:17:08.041Z,4.35
2018-06-04T15:19:36.250Z,4.20
2018-06-04T15:22:04.417Z,4.62
2018-06-04T15:24:33.300Z,4.37
2018-06-04T15:27:01.593Z,4.35
2018-06-04T15:29:29.728Z,5.30
2018-06-04T15:31:58.276Z,4.17
2018-06-04T15:34:26.441Z,3.80
2018-06-04T15:36:54.649Z,5.33
2018-06-04T15:39:22.991Z,4.83
2018-06-04T15:41:51.367Z,4.08
2018-06-04T15:44:19.534Z,3.75
2018-06-04T15:46:47.726Z,3.80
2018-06-04T15:49:15.905Z,5.47
2018-06-04T15:51:44.088Z,4.05
2018-06-04T15:54:12.236Z,3.90
2018-06-04T15:56:40.437Z,4.50
2018-06-04T15:59:08.573Z,4.22
2018-06-04T16:01:36.748Z,3.87
2018-06-04T16:04:04.925Z,4.08
2018-06-04T16:06:33.108Z,4.00
2018-06-04T16:09:01.274Z,3.85
2018-06-04T16:11:29.479Z,3.70
2018-06-04T16:13:57.938Z,4.60
2018-06-04T16:16:26.117Z,4.17
2018-06-04T16:18:54.308Z,4.30
2018-06-04T16:21:22.239Z,4.10
2018-06-04T16:23:50.393Z,4.12
2018-06-04T16:26:18.649Z,4.22
2018-06-04T16:28:47.056Z,4.50
2018-06-04T16:31:15.255Z,4.17
2018-06-04T16:33:43.425Z,6.33
2018-06-04T16:36:11.567Z,4.30
2018-06-04T16:38:40.137Z,4.50
2018-06-04T16:41:08.152Z,4.28
2018-06-04T16:43:36.321Z,4.58
2018-06-04T16:46:05.075Z,4.87
2018-06-04T16:48:34.144Z,4.50
2018-06-04T16:51:02.357Z,5.42
2018-06-04T16:53:30.673Z,4.50
2018-06-04T16:55:58.890Z,4.30
2018-06-04T16:58:27.053Z,4.12
2018-06-04T17:00:55.241Z,4.92
2018-06-04T17:03:23.401Z,4.17
2018-06-04T17:05:51.601Z,3.83
2018-06-04T17:08:19.771Z,4.33
2018-06-04T17:10:47.921Z,4.70
2018-06-04T17:13:16.201Z,5.08
2018-06-04T17:15:44.364Z,5.37
2018-06-04T17:18:13.304Z,5.00
2018-06-04T17:20:41.623Z,4.75
2018-06-04T17:23:09.777Z,5.10
2018-06-04T17:25:37.968Z,4.60
2018-06-04T17:28:06.199Z,5.00
2018-06-04T17:30:34.364Z,5.50
2018-06-04T17:33:02.512Z,5.00
2018-06-04T17:35:30.852Z,5.53
2018-06-04T17:37:59.093Z,5.00
2018-06-04T17:40:27.346Z,5.53
2018-06-04T17:42:55.940Z,6.33
2018-06-04T17:45:24.088Z,5.65
2018-06-04T17:47:52.276Z,4.75
2018-06-04T17:50:20.451Z,5.00
2018-06-04T17:52:48.820Z,5.78
2018-06-04T17:55:17.359Z,5.17
2018-06-04T17:57:45.517Z,5.20
2018-06-04T18:00:13.723Z,6.22
2018-06-04T18:02:43.260Z,5.25
2018-06-04T18:05:11.703Z,5.78
2018-06-04T18:07:39.911Z,5.00
2018-06-04T18:10:08.437Z,5.55
2018-06-04T18:12:36.860Z,6.67
2018-06-04T18:15:05.809Z,4.90
2018-06-04T18:17:34.044Z,5.62
2018-06-04T18:20:02.965Z,5.50
2018-06-04T18:22:31.234Z,5.50
2018-06-04T18:24:59.520Z,5.00
2018-06-04T18:27:28.038Z,5.57
2018-06-04T18:29:56.364Z,5.03
2018-06-04T18:32:24.547Z,5.50
2018-06-04T18:34:53.281Z,5.73
2018-06-04T18:37:21.642Z,5.58
2018-06-04T18:39:49.792Z,5.33
2018-06-04T18:42:18.516Z,5.20
2018-06-04T18:44:46.870Z,5.40
2018-06-04T18:47:15.078Z,5.73
2018-06-04T18:49:43.719Z,4.97
2018-06-04T18:52:12.352Z,5.50
2018-06-04T18:54:40.502Z,5.97
2018-06-04T18:57:08.692Z,5.67
2018-06-04T18:59:37.143Z,5.77
2018-06-04T19:02:05.412Z,5.47
2018-06-04T19:04:33.639Z,5.50
2018-06-04T19:07:01.905Z,5.27
2018-06-04T19:09:30.063Z,5.23
2018-06-04T19:11:58.243Z,5.50
2018-06-04T19:14:26.475Z,6.13
2018-06-04T19:16:55.463Z,5.77
2018-06-04T19:19:23.697Z,5.87
2018-06-04T19:21:51.876Z,6.57
2018-06-04T19:24:20.238Z,5.90
2018-06-04T19:26:48.453Z,6.00
2018-06-04T19:29:17.647Z,6.07
2018-06-04T19:31:45.899Z,6.83
2018-06-04T19:34:14.161Z,6.33
2018-06-04T19:36:42.359Z,6.00
2018-06-04T19:39:10.626Z,6.73
2018-06-04T19:41:38.752Z,6.47
2018-06-04T19:44:07.117Z,5.93
2018-06-04T19:46:35.633Z,5.90
2018-06-04T19:49:03.831Z,6.43
2018-06-04T19:51:32.682Z,5.60
2018-06-04T19:54:00.983Z,5.83
2018-06-04T19:56:29.333Z,7.03
2018-06-04T19:58:58.225Z,6.77
2018-06-04T20:01:26.582Z,6.37
2018-06-04T20:03:55.668Z,6.70
2018-06-04T20:06:24.272Z,7.30
2018-06-04T20:08:52.663Z,7.17
2018-06-04T20:11:20.891Z,7.00
2018-06-04T20:13:49.130Z,6.73
2018-06-04T20:16:17.404Z,6.80
2018-06-04T20:18:45.630Z,6.27
2018-06-04T20:21:13.816Z,6.60
2018-06-04T20:23:42.008Z,6.47
2018-06-04T20:26:10.245Z,6.70
2018-06-04T20:28:38.517Z,6.60
2018-06-04T20:31:06.811Z,6.53
2018-06-04T20:33:35.027Z,6.53
2018-06-04T20:36:03.275Z,6.70
2018-06-04T20:38:31.427Z,7.57
2018-06-04T20:40:59.656Z,6.63
2018-06-04T20:43:27.822Z,6.53
2018-06-04T20:45:57.583Z,7.37
2018-06-04T20:48:26.158Z,7.47
2018-06-04T20:50:54.425Z,6.17
2018-06-04T20:53:22.632Z,7.00
2018-06-04T20:55:50.827Z,7.30
2018-06-04T20:58:19.056Z,9.10
2018-06-04T21:00:47.254Z,7.83
2018-06-04T21:03:15.488Z,7.90
2018-06-04T21:05:43.664Z,7.30
2018-06-04T21:08:12.161Z,8.77
2018-06-04T21:10:40.392Z,8.77
2018-06-04T21:13:08.564Z,8.40
2018-06-04T21:15:36.747Z,9.03
2018-06-04T21:18:04.977Z,11.13
2018-06-04T21:20:33.141Z,15.77
2018-06-04T21:23:01.340Z,15.77
2018-06-04T21:25:29.532Z,16.40
2018-06-04T21:27:57.729Z,12.47
2018-06-04T21:30:26.564Z,10.77
2018-06-04T21:32:54.521Z,9.50
2018-06-04T21:35:22.688Z,9.33
2018-06-04T21:37:50.903Z,8.43
2018-06-04T21:40:19.082Z,8.83
2018-06-04T21:42:47.292Z,9.17
2018-06-04T21:45:15.464Z,9.87
2018-06-04T21:47:43.629Z,9.60
2018-06-04T21:50:11.825Z,8.93
2018-06-04T21:52:39.995Z,8.83
2018-06-04T21:55:08.156Z,9.17
2018-06-04T21:57:36.353Z,9.87
2018-06-04T22:00:07.636Z,9.10
2018-06-04T22:02:35.915Z,9.17
2018-06-04T22:05:04.113Z,10.17
2018-06-04T22:07:32.308Z,9.70
2018-06-04T22:10:01.801Z,9.20
2018-06-04T22:12:33.652Z,10.03
2018-06-04T22:15:02.322Z,9.37
2018-06-04T22:17:30.884Z,10.13
2018-06-04T22:19:59.736Z,10.77
2018-06-04T22:22:27.963Z,9.30
2018-06-04T22:24:56.389Z,9.67
2018-06-04T22:27:24.592Z,9.53
2018-06-04T22:29:52.789Z,10.30
2018-06-04T22:32:21.018Z,9.57
2018-06-04T22:37:23.768Z,10.00
2018-06-04T22:39:51.939Z,11.23
2018-06-04T22:42:20.120Z,9.53
2018-06-04T22:44:48.308Z,9.80
2018-06-04T22:47:16.460Z,10.47
2018-06-04T22:49:44.640Z,9.83
2018-06-04T22:52:12.843Z,10.43
2018-06-04T22:54:41.119Z,10.43
2018-06-04T22:57:09.292Z,9.83
2018-06-04T22:59:37.564Z,9.93
2018-06-04T23:02:05.758Z,10.03
2018-06-04T23:04:33.988Z,9.90
2018-06-04T23:07:02.216Z,10.03
2018-06-04T23:09:30.369Z,10.03
2018-06-04T23:11:58.520Z,10.27
2018-06-04T23:14:27.100Z,10.97
2018-06-04T23:16:55.284Z,10.77
2018-06-04T23:19:23.464Z,10.50
2018-06-04T23:21:51.671Z,11.10
2018-06-04T23:24:19.841Z,10.77
2018-06-04T23:26:48.039Z,10.83
2018-06-04T23:29:16.182Z,12.10
2018-06-04T23:31:44.368Z,11.73
2018-06-04T23:34:12.306Z,11.07
2018-06-04T23:36:40.504Z,11.83
2018-06-04T23:39:08.936Z,10.50
2018-06-04T23:41:37.108Z,10.90
2018-06-04T23:44:05.317Z,10.57
2018-06-04T23:46:33.492Z,11.53
2018-06-04T23:49:01.669Z,11.00
2018-06-04T23:51:29.832Z,11.03
2018-06-04T23:53:58.011Z,10.33
2018-06-04T23:56:26.181Z,11.37
2018-06-04T23:58:54.371Z,10.87
